sensor_id;sensor_type;location;lat;lon;timestamp;P1;durP1;ratioP1;P2;durP2;ratioP2
23812;SDS011;12087;45.190;5.688;2022-08-20T00:02:03;9.25;;;8.25;;
23812;SDS011;12087;45.190;5.688;2022-08-20T00:07:27;9.85;;;8.80;;
23812;SDS011;12087;45.190;5.688;2022-08-20T00:12:50;9.65;;;8.68;;
23812;SDS011;12087;45.190;5.688;2022-08-20T00:18:13;11.73;;;9.27;;
23812;SDS011;12087;45.190;5.688;2022-08-20T00:23:37;10.50;;;8.82;;
23812;SDS011;12087;45.190;5.688;2022-08-20T00:29:02;11.38;;;9.02;;
23812;SDS011;12087;45.190;5.688;2022-08-20T00:34:24;9.55;;;8.60;;
23812;SDS011;12087;45.190;5.688;2022-08-20T00:39:48;10.10;;;8.60;;
23812;SDS011;12087;45.190;5.688;2022-08-20T00:45:11;9.57;;;8.27;;
23812;SDS011;12087;45.190;5.688;2022-08-20T00:50:34;11.05;;;8.63;;
23812;SDS011;12087;45.190;5.688;2022-08-20T00:55:59;14.45;;;9.07;;
23812;SDS011;12087;45.190;5.688;2022-08-20T01:01:22;10.30;;;9.30;;
23812;SDS011;12087;45.190;5.688;2022-08-20T01:06:44;10.57;;;8.68;;
23812;SDS011;12087;45.190;5.688;2022-08-20T01:12:08;9.88;;;8.82;;
23812;SDS011;12087;45.190;5.688;2022-08-20T01:17:31;10.68;;;8.95;;
23812;SDS011;12087;45.190;5.688;2022-08-20T01:22:57;11.35;;;8.65;;
23812;SDS011;12087;45.190;5.688;2022-08-20T01:28:50;11.73;;;9.68;;
23812;SDS011;12087;45.190;5.688;2022-08-20T01:34:16;9.35;;;8.43;;
23812;SDS011;12087;45.190;5.688;2022-08-20T01:39:42;10.23;;;9.00;;
23812;SDS011;12087;45.190;5.688;2022-08-20T01:45:06;10.80;;;9.73;;
23812;SDS011;12087;45.190;5.688;2022-08-20T01:50:29;10.93;;;9.65;;
23812;SDS011;12087;45.190;5.688;2022-08-20T01:55:55;9.75;;;8.60;;
23812;SDS011;12087;45.190;5.688;2022-08-20T02:01:19;11.45;;;8.95;;
23812;SDS011;12087;45.190;5.688;2022-08-20T02:06:44;9.98;;;8.55;;
23812;SDS011;12087;45.190;5.688;2022-08-20T02:12:11;10.52;;;8.63;;
23812;SDS011;12087;45.190;5.688;2022-08-20T02:17:37;10.18;;;9.15;;
23812;SDS011;12087;45.190;5.688;2022-08-20T02:23:01;14.00;;;9.23;;
23812;SDS011;12087;45.190;5.688;2022-08-20T02:28:24;14.55;;;9.20;;
23812;SDS011;12087;45.190;5.688;2022-08-20T02:33:48;10.25;;;8.57;;
23812;SDS011;12087;45.190;5.688;2022-08-20T02:39:11;9.45;;;8.55;;
23812;SDS011;12087;45.190;5.688;2022-08-20T02:44:33;9.77;;;8.57;;
23812;SDS011;12087;45.190;5.688;2022-08-20T02:49:57;9.15;;;8.23;;
23812;SDS011;12087;45.190;5.688;2022-08-20T02:55:20;10.52;;;8.48;;
23812;SDS011;12087;45.190;5.688;2022-08-20T03:00:43;8.98;;;8.07;;
23812;SDS011;12087;45.190;5.688;2022-08-20T03:06:08;10.70;;;8.68;;
23812;SDS011;12087;45.190;5.688;2022-08-20T03:11:31;11.85;;;8.52;;
23812;SDS011;12087;45.190;5.688;2022-08-20T03:16:54;8.85;;;8.05;;
23812;SDS011;12087;45.190;5.688;2022-08-20T03:22:17;9.27;;;8.20;;
23812;SDS011;12087;45.190;5.688;2022-08-20T03:27:39;10.98;;;8.27;;
23812;SDS011;12087;45.190;5.688;2022-08-20T03:33:03;11.02;;;7.68;;
23812;SDS011;12087;45.190;5.688;2022-08-20T03:38:27;11.10;;;8.77;;
23812;SDS011;12087;45.190;5.688;2022-08-20T03:43:49;10.68;;;8.40;;
23812;SDS011;12087;45.190;5.688;2022-08-20T03:49:11;10.38;;;9.27;;
23812;SDS011;12087;45.190;5.688;2022-08-20T03:54:35;12.35;;;9.15;;
23812;SDS011;12087;45.190;5.688;2022-08-20T03:59:57;9.57;;;8.68;;
23812;SDS011;12087;45.190;5.688;2022-08-20T04:05:19;11.38;;;8.75;;
23812;SDS011;12087;45.190;5.688;2022-08-20T04:10:43;17.50;;;9.30;;
23812;SDS011;12087;45.190;5.688;2022-08-20T04:16:06;12.35;;;9.88;;
23812;SDS011;12087;45.190;5.688;2022-08-20T04:21:28;10.35;;;9.25;;
23812;SDS011;12087;45.190;5.688;2022-08-20T04:26:52;8.88;;;7.97;;
23812;SDS011;12087;45.190;5.688;2022-08-20T04:32:15;9.18;;;8.27;;
23812;SDS011;12087;45.190;5.688;2022-08-20T04:37:37;10.98;;;7.82;;
23812;SDS011;12087;45.190;5.688;2022-08-20T04:43:01;12.35;;;8.50;;
23812;SDS011;12087;45.190;5.688;2022-08-20T04:48:25;14.70;;;8.98;;
23812;SDS011;12087;45.190;5.688;2022-08-20T04:53:48;9.43;;;8.00;;
23812;SDS011;12087;45.190;5.688;2022-08-20T04:59:13;10.75;;;8.20;;
23812;SDS011;12087;45.190;5.688;2022-08-20T05:04:35;9.57;;;8.57;;
23812;SDS011;12087;45.190;5.688;2022-08-20T05:09:58;12.98;;;9.07;;
23812;SDS011;12087;45.190;5.688;2022-08-20T05:15:26;9.95;;;8.13;;
23812;SDS011;12087;45.190;5.688;2022-08-20T05:20:48;9.77;;;8.80;;
23812;SDS011;12087;45.190;5.688;2022-08-20T05:26:10;10.95;;;8.50;;
23812;SDS011;12087;45.190;5.688;2022-08-20T05:31:36;11.38;;;9.65;;
23812;SDS011;12087;45.190;5.688;2022-08-20T05:36:58;13.07;;;10.23;;
23812;SDS011;12087;45.190;5.688;2022-08-20T05:42:23;15.68;;;10.13;;
23812;SDS011;12087;45.190;5.688;2022-08-20T05:47:49;19.38;;;10.35;;
23812;SDS011;12087;45.190;5.688;2022-08-20T05:53:11;12.45;;;9.93;;
23812;SDS011;12087;45.190;5.688;2022-08-20T05:58:34;15.23;;;9.35;;
23812;SDS011;12087;45.190;5.688;2022-08-20T06:03:57;15.63;;;9.40;;
23812;SDS011;12087;45.190;5.688;2022-08-20T06:09:37;12.65;;;9.95;;
23812;SDS011;12087;45.190;5.688;2022-08-20T06:14:59;10.52;;;9.43;;
23812;SDS011;12087;45.190;5.688;2022-08-20T06:20:23;10.20;;;8.70;;
23812;SDS011;12087;45.190;5.688;2022-08-20T06:25:47;12.02;;;8.82;;
23812;SDS011;12087;45.190;5.688;2022-08-20T06:31:10;9.30;;;7.63;;
23812;SDS011;12087;45.190;5.688;2022-08-20T06:36:33;10.50;;;7.30;;
23812;SDS011;12087;45.190;5.688;2022-08-20T06:41:55;9.75;;;7.00;;
23812;SDS011;12087;45.190;5.688;2022-08-20T06:47:19;9.50;;;7.47;;
23812;SDS011;12087;45.190;5.688;2022-08-20T06:52:43;8.40;;;6.82;;
23812;SDS011;12087;45.190;5.688;2022-08-20T06:58:07;8.48;;;7.25;;
23812;SDS011;12087;45.190;5.688;2022-08-20T07:03:31;7.90;;;6.68;;
23812;SDS011;12087;45.190;5.688;2022-08-20T07:08:55;9.55;;;6.93;;
23812;SDS011;12087;45.190;5.688;2022-08-20T07:14:18;9.95;;;8.48;;
23812;SDS011;12087;45.190;5.688;2022-08-20T07:19:41;8.43;;;6.60;;
23812;SDS011;12087;45.190;5.688;2022-08-20T07:25:06;8.77;;;5.88;;
23812;SDS011;12087;45.190;5.688;2022-08-20T07:30:30;7.45;;;6.75;;
23812;SDS011;12087;45.190;5.688;2022-08-20T07:36:10;10.43;;;7.13;;
23812;SDS011;12087;45.190;5.688;2022-08-20T07:41:35;7.18;;;6.07;;
23812;SDS011;12087;45.190;5.688;2022-08-20T07:46:57;7.20;;;6.28;;
23812;SDS011;12087;45.190;5.688;2022-08-20T07:52:19;8.90;;;7.38;;
23812;SDS011;12087;45.190;5.688;2022-08-20T07:57:43;11.93;;;7.63;;
23812;SDS011;12087;45.190;5.688;2022-08-20T08:03:08;10.75;;;7.28;;
23812;SDS011;12087;45.190;5.688;2022-08-20T08:08:30;11.88;;;8.10;;
23812;SDS011;12087;45.190;5.688;2022-08-20T08:13:55;13.55;;;8.57;;
23812;SDS011;12087;45.190;5.688;2022-08-20T08:19:17;13.82;;;8.45;;
23812;SDS011;12087;45.190;5.688;2022-08-20T08:24:40;9.10;;;8.20;;
23812;SDS011;12087;45.190;5.688;2022-08-20T08:30:05;9.27;;;8.27;;
23812;SDS011;12087;45.190;5.688;2022-08-20T08:35:30;13.95;;;9.00;;
23812;SDS011;12087;45.190;5.688;2022-08-20T08:40:53;13.63;;;7.10;;
23812;SDS011;12087;45.190;5.688;2022-08-20T08:46:19;6.60;;;6.00;;
23812;SDS011;12087;45.190;5.688;2022-08-20T08:51:45;6.20;;;5.60;;
23812;SDS011;12087;45.190;5.688;2022-08-20T08:57:11;6.68;;;6.07;;
23812;SDS011;12087;45.190;5.688;2022-08-20T09:02:36;5.97;;;5.38;;
23812;SDS011;12087;45.190;5.688;2022-08-20T09:08:02;4.45;;;4.05;;
23812;SDS011;12087;45.190;5.688;2022-08-20T09:13:25;4.38;;;4.07;;
23812;SDS011;12087;45.190;5.688;2022-08-20T09:18:49;3.92;;;3.55;;
23812;SDS011;12087;45.190;5.688;2022-08-20T09:24:12;3.78;;;3.45;;
23812;SDS011;12087;45.190;5.688;2022-08-20T09:29:34;4.18;;;3.78;;
23812;SDS011;12087;45.190;5.688;2022-08-20T09:35:07;4.80;;;4.40;;
23812;SDS011;12087;45.190;5.688;2022-08-20T09:40:30;5.03;;;3.33;;
23812;SDS011;12087;45.190;5.688;2022-08-20T09:45:53;3.63;;;1.90;;
23812;SDS011;12087;45.190;5.688;2022-08-20T09:51:17;2.25;;;1.83;;
23812;SDS011;12087;45.190;5.688;2022-08-20T09:56:39;5.70;;;1.80;;
23812;SDS011;12087;45.190;5.688;2022-08-20T10:02:02;2.60;;;1.80;;
23812;SDS011;12087;45.190;5.688;2022-08-20T10:07:26;1.60;;;1.50;;
23812;SDS011;12087;45.190;5.688;2022-08-20T10:12:48;1.80;;;1.50;;
23812;SDS011;12087;45.190;5.688;2022-08-20T10:18:10;1.23;;;1.13;;
23812;SDS011;12087;45.190;5.688;2022-08-20T10:23:34;1.75;;;1.50;;
23812;SDS011;12087;45.190;5.688;2022-08-20T10:28:56;2.05;;;1.50;;
23812;SDS011;12087;45.190;5.688;2022-08-20T10:34:18;1.40;;;0.90;;
23812;SDS011;12087;45.190;5.688;2022-08-20T10:39:42;1.17;;;1.08;;
23812;SDS011;12087;45.190;5.688;2022-08-20T10:45:05;7.80;;;2.25;;
23812;SDS011;12087;45.190;5.688;2022-08-20T10:50:28;1.67;;;0.98;;
23812;SDS011;12087;45.190;5.688;2022-08-20T10:55:52;1.52;;;0.88;;
23812;SDS011;12087;45.190;5.688;2022-08-20T11:01:15;1.65;;;0.63;;
23812;SDS011;12087;45.190;5.688;2022-08-20T11:06:37;1.05;;;0.60;;
23812;SDS011;12087;45.190;5.688;2022-08-20T11:12:01;0.60;;;0.60;;
23812;SDS011;12087;45.190;5.688;2022-08-20T11:17:24;0.85;;;0.70;;
23812;SDS011;12087;45.190;5.688;2022-08-20T11:22:49;0.82;;;0.63;;
23812;SDS011;12087;45.190;5.688;2022-08-20T11:28:12;0.65;;;0.60;;
23812;SDS011;12087;45.190;5.688;2022-08-20T11:33:35;1.15;;;1.00;;
23812;SDS011;12087;45.190;5.688;2022-08-20T11:38:57;0.95;;;0.85;;
23812;SDS011;12087;45.190;5.688;2022-08-20T11:44:21;1.05;;;1.00;;
23812;SDS011;12087;45.190;5.688;2022-08-20T11:49:43;1.73;;;0.65;;
23812;SDS011;12087;45.190;5.688;2022-08-20T11:55:06;0.60;;;0.60;;
23812;SDS011;12087;45.190;5.688;2022-08-20T12:00:31;1.70;;;0.80;;
23812;SDS011;12087;45.190;5.688;2022-08-20T12:05:55;0.80;;;0.80;;
23812;SDS011;12087;45.190;5.688;2022-08-20T12:11:18;0.65;;;0.60;;
23812;SDS011;12087;45.190;5.688;2022-08-20T12:16:41;1.25;;;0.70;;
23812;SDS011;12087;45.190;5.688;2022-08-20T12:22:03;3.30;;;1.20;;
23812;SDS011;12087;45.190;5.688;2022-08-20T12:27:27;2.55;;;1.73;;
23812;SDS011;12087;45.190;5.688;2022-08-20T12:32:52;0.63;;;0.60;;
23812;SDS011;12087;45.190;5.688;2022-08-20T12:38:17;0.93;;;0.70;;
23812;SDS011;12087;45.190;5.688;2022-08-20T12:43:40;0.98;;;0.75;;
23812;SDS011;12087;45.190;5.688;2022-08-20T12:49:04;2.78;;;0.80;;
23812;SDS011;12087;45.190;5.688;2022-08-20T12:54:26;0.70;;;0.63;;
23812;SDS011;12087;45.190;5.688;2022-08-20T12:59:48;0.52;;;0.52;;
23812;SDS011;12087;45.190;5.688;2022-08-20T13:05:12;0.60;;;0.60;;
23812;SDS011;12087;45.190;5.688;2022-08-20T13:10:36;1.67;;;0.50;;
23812;SDS011;12087;45.190;5.688;2022-08-20T13:16:08;0.60;;;0.60;;
23812;SDS011;12087;45.190;5.688;2022-08-20T13:21:32;11.00;;;1.10;;
23812;SDS011;12087;45.190;5.688;2022-08-20T13:27:02;1.60;;;1.10;;
23812;SDS011;12087;45.190;5.688;2022-08-20T13:32:26;0.73;;;0.52;;
23812;SDS011;12087;45.190;5.688;2022-08-20T13:37:49;1.38;;;0.50;;
23812;SDS011;12087;45.190;5.688;2022-08-20T13:43:12;1.05;;;0.50;;
23812;SDS011;12087;45.190;5.688;2022-08-20T13:48:34;1.35;;;0.60;;
23812;SDS011;12087;45.190;5.688;2022-08-20T13:53:58;0.88;;;0.70;;
23812;SDS011;12087;45.190;5.688;2022-08-20T13:59:20;1.25;;;0.63;;
23812;SDS011;12087;45.190;5.688;2022-08-20T14:04:43;1.20;;;0.63;;
23812;SDS011;12087;45.190;5.688;2022-08-20T14:10:09;3.00;;;0.52;;
23812;SDS011;12087;45.190;5.688;2022-08-20T14:15:34;0.98;;;0.77;;
23812;SDS011;12087;45.190;5.688;2022-08-20T14:20:56;2.03;;;1.10;;
23812;SDS011;12087;45.190;5.688;2022-08-20T14:26:20;1.20;;;0.70;;
23812;SDS011;12087;45.190;5.688;2022-08-20T14:31:42;1.27;;;0.68;;
23812;SDS011;12087;45.190;5.688;2022-08-20T14:37:08;2.05;;;0.77;;
23812;SDS011;12087;45.190;5.688;2022-08-20T14:42:33;0.50;;;0.40;;
23812;SDS011;12087;45.190;5.688;2022-08-20T14:47:56;1.23;;;0.63;;
23812;SDS011;12087;45.190;5.688;2022-08-20T14:53:18;0.50;;;0.40;;
23812;SDS011;12087;45.190;5.688;2022-08-20T14:58:42;1.17;;;0.50;;
23812;SDS011;12087;45.190;5.688;2022-08-20T15:04:04;2.00;;;0.65;;
23812;SDS011;12087;45.190;5.688;2022-08-20T15:09:28;1.67;;;0.80;;
23812;SDS011;12087;45.190;5.688;2022-08-20T15:14:52;1.17;;;0.52;;
23812;SDS011;12087;45.190;5.688;2022-08-20T15:20:15;0.40;;;0.40;;
23812;SDS011;12087;45.190;5.688;2022-08-20T15:25:39;26.13;;;1.73;;
23812;SDS011;12087;45.190;5.688;2022-08-20T15:31:07;2.20;;;0.70;;
23812;SDS011;12087;45.190;5.688;2022-08-20T15:36:29;6.55;;;5.53;;
23812;SDS011;12087;45.190;5.688;2022-08-20T15:41:51;0.82;;;0.80;;
23812;SDS011;12087;45.190;5.688;2022-08-20T15:47:19;2.38;;;0.75;;
23812;SDS011;12087;45.190;5.688;2022-08-20T15:52:55;0.57;;;0.50;;
23812;SDS011;12087;45.190;5.688;2022-08-20T15:58:35;0.98;;;0.55;;
23812;SDS011;12087;45.190;5.688;2022-08-20T16:04:19;0.75;;;0.50;;
23812;SDS011;12087;45.190;5.688;2022-08-20T16:10:06;0.60;;;0.60;;
23812;SDS011;12087;45.190;5.688;2022-08-20T16:15:37;4.65;;;0.63;;
23812;SDS011;12087;45.190;5.688;2022-08-20T16:21:06;0.65;;;0.50;;
23812;SDS011;12087;45.190;5.688;2022-08-20T16:26:36;4.00;;;0.70;;
23812;SDS011;12087;45.190;5.688;2022-08-20T16:32:15;2.47;;;1.25;;
23812;SDS011;12087;45.190;5.688;2022-08-20T16:56:31;1.00;;;0.60;;
23812;SDS011;12087;45.190;5.688;2022-08-20T17:08:45;1.35;;;0.70;;
23812;SDS011;12087;45.190;5.688;2022-08-20T17:20:18;2.03;;;0.70;;
23812;SDS011;12087;45.190;5.688;2022-08-20T17:26:04;2.13;;;0.50;;
23812;SDS011;12087;45.190;5.688;2022-08-20T17:37:58;0.85;;;0.55;;
23812;SDS011;12087;45.190;5.688;2022-08-20T17:43:32;1.00;;;0.70;;
23812;SDS011;12087;45.190;5.688;2022-08-20T17:55:21;10.65;;;2.17;;
23812;SDS011;12087;45.190;5.688;2022-08-20T18:00:51;3.45;;;1.20;;
23812;SDS011;12087;45.190;5.688;2022-08-20T18:06:17;2.63;;;1.35;;
23812;SDS011;12087;45.190;5.688;2022-08-20T18:11:43;2.97;;;0.97;;
23812;SDS011;12087;45.190;5.688;2022-08-20T18:17:23;6.28;;;1.35;;
23812;SDS011;12087;45.190;5.688;2022-08-20T18:23:21;5.65;;;1.20;;
23812;SDS011;12087;45.190;5.688;2022-08-20T18:28:50;2.90;;;0.93;;
23812;SDS011;12087;45.190;5.688;2022-08-20T18:34:17;1.92;;;0.75;;
23812;SDS011;12087;45.190;5.688;2022-08-20T18:39:44;1.27;;;0.63;;
23812;SDS011;12087;45.190;5.688;2022-08-20T18:45:08;4.20;;;0.90;;
23812;SDS011;12087;45.190;5.688;2022-08-20T18:50:39;7.70;;;3.40;;
23812;SDS011;12087;45.190;5.688;2022-08-20T18:56:09;3.42;;;2.17;;
23812;SDS011;12087;45.190;5.688;2022-08-20T19:01:34;12.40;;;6.55;;
23812;SDS011;12087;45.190;5.688;2022-08-20T19:06:58;3.42;;;0.90;;
23812;SDS011;12087;45.190;5.688;2022-08-20T19:12:30;1.63;;;0.60;;
23812;SDS011;12087;45.190;5.688;2022-08-20T19:18:05;1.02;;;0.80;;
23812;SDS011;12087;45.190;5.688;2022-08-20T19:23:38;1.63;;;0.85;;
23812;SDS011;12087;45.190;5.688;2022-08-20T19:29:06;14.00;;;2.38;;
23812;SDS011;12087;45.190;5.688;2022-08-20T19:34:31;3.42;;;2.50;;
23812;SDS011;12087;45.190;5.688;2022-08-20T19:39:55;6.60;;;1.98;;
23812;SDS011;12087;45.190;5.688;2022-08-20T19:45:22;3.03;;;1.98;;
23812;SDS011;12087;45.190;5.688;2022-08-20T19:50:52;2.50;;;1.38;;
23812;SDS011;12087;45.190;5.688;2022-08-20T19:56:23;1.20;;;1.00;;
23812;SDS011;12087;45.190;5.688;2022-08-20T20:01:53;0.70;;;0.70;;
23812;SDS011;12087;45.190;5.688;2022-08-20T20:07:20;3.58;;;1.92;;
23812;SDS011;12087;45.190;5.688;2022-08-20T20:12:45;1.35;;;1.20;;
23812;SDS011;12087;45.190;5.688;2022-08-20T20:18:09;2.47;;;1.00;;
23812;SDS011;12087;45.190;5.688;2022-08-20T20:23:32;3.90;;;1.13;;
23812;SDS011;12087;45.190;5.688;2022-08-20T20:28:59;1.85;;;1.00;;
23812;SDS011;12087;45.190;5.688;2022-08-20T20:34:26;2.40;;;0.93;;
23812;SDS011;12087;45.190;5.688;2022-08-20T20:39:56;3.13;;;0.98;;
23812;SDS011;12087;45.190;5.688;2022-08-20T20:45:21;4.38;;;0.70;;
23812;SDS011;12087;45.190;5.688;2022-08-20T20:50:52;6.60;;;1.30;;
23812;SDS011;12087;45.190;5.688;2022-08-20T20:56:25;1.55;;;0.60;;
23812;SDS011;12087;45.190;5.688;2022-08-20T21:01:49;5.75;;;0.70;;
23812;SDS011;12087;45.190;5.688;2022-08-20T21:07:14;1.52;;;0.60;;
23812;SDS011;12087;45.190;5.688;2022-08-20T21:12:38;1.10;;;0.80;;
23812;SDS011;12087;45.190;5.688;2022-08-20T21:18:01;1.70;;;0.60;;
23812;SDS011;12087;45.190;5.688;2022-08-20T21:23:26;4.00;;;0.73;;
23812;SDS011;12087;45.190;5.688;2022-08-20T21:28:48;2.20;;;0.75;;
23812;SDS011;12087;45.190;5.688;2022-08-20T21:34:11;1.55;;;0.70;;
23812;SDS011;12087;45.190;5.688;2022-08-20T21:39:36;6.53;;;0.75;;
23812;SDS011;12087;45.190;5.688;2022-08-20T21:44:58;2.50;;;0.85;;
23812;SDS011;12087;45.190;5.688;2022-08-20T21:50:21;3.70;;;3.28;;
23812;SDS011;12087;45.190;5.688;2022-08-20T21:55:45;5.65;;;0.95;;
23812;SDS011;12087;45.190;5.688;2022-08-20T22:01:07;1.60;;;0.68;;
23812;SDS011;12087;45.190;5.688;2022-08-20T22:06:30;7.63;;;1.05;;
23812;SDS011;12087;45.190;5.688;2022-08-20T22:11:54;1.08;;;0.70;;
23812;SDS011;12087;45.190;5.688;2022-08-20T22:17:16;4.90;;;1.02;;
23812;SDS011;12087;45.190;5.688;2022-08-20T22:22:39;2.00;;;1.00;;
23812;SDS011;12087;45.190;5.688;2022-08-20T22:28:04;2.38;;;0.70;;
23812;SDS011;12087;45.190;5.688;2022-08-20T22:33:27;2.80;;;1.25;;
23812;SDS011;12087;45.190;5.688;2022-08-20T22:38:49;0.55;;;0.52;;
23812;SDS011;12087;45.190;5.688;2022-08-20T22:44:14;4.35;;;0.85;;
23812;SDS011;12087;45.190;5.688;2022-08-20T22:49:36;1.50;;;0.90;;
23812;SDS011;12087;45.190;5.688;2022-08-20T22:55:00;3.97;;;0.80;;
23812;SDS011;12087;45.190;5.688;2022-08-20T23:00:24;1.08;;;0.90;;
23812;SDS011;12087;45.190;5.688;2022-08-20T23:05:47;0.93;;;0.77;;
23812;SDS011;12087;45.190;5.688;2022-08-20T23:11:10;5.60;;;0.80;;
23812;SDS011;12087;45.190;5.688;2022-08-20T23:16:33;2.05;;;0.80;;
23812;SDS011;12087;45.190;5.688;2022-08-20T23:21:57;2.90;;;0.68;;
23812;SDS011;12087;45.190;5.688;2022-08-20T23:27:20;3.58;;;0.70;;
23812;SDS011;12087;45.190;5.688;2022-08-20T23:32:44;1.05;;;0.50;;
23812;SDS011;12087;45.190;5.688;2022-08-20T23:38:07;0.80;;;0.50;;
23812;SDS011;12087;45.190;5.688;2022-08-20T23:43:29;4.28;;;0.70;;
23812;SDS011;12087;45.190;5.688;2022-08-20T23:48:53;1.88;;;0.75;;
23812;SDS011;12087;45.190;5.688;2022-08-20T23:54:16;0.98;;;0.80;;
23812;SDS011;12087;45.190;5.688;2022-08-20T23:59:38;3.45;;;0.50;;
